sensor_id;sensor_type;location;lat;lon;timestamp;pressure;altitude;pressure_sealevel;temperature;humidity
28344;BME280;15597;50.914;6.638;2023-04-20T00:01:58;101237.25;;;13.74;35.10
28344;BME280;15597;50.914;6.638;2023-04-20T00:04:28;101234.81;;;13.66;35.31
28344;BME280;15597;50.914;6.638;2023-04-20T00:06:54;101230.56;;;13.61;35.37
28344;BME280;15597;50.914;6.638;2023-04-20T00:09:21;101239.50;;;13.53;35.12
28344;BME280;15597;50.914;6.638;2023-04-20T00:11:48;101231.66;;;13.52;35.01
28344;BME280;15597;50.914;6.638;2023-04-20T00:14:14;101225.53;;;13.51;35.39
28344;BME280;15597;50.914;6.638;2023-04-20T00:16:40;101218.53;;;13.52;35.20
28344;BME280;15597;50.914;6.638;2023-04-20T00:19:05;101222.00;;;13.52;35.62
28344;BME280;15597;50.914;6.638;2023-04-20T00:21:32;101209.59;;;13.57;36.41
28344;BME280;15597;50.914;6.638;2023-04-20T00:24:00;101201.63;;;13.61;36.18
28344;BME280;15597;50.914;6.638;2023-04-20T00:26:26;101200.66;;;13.65;36.07
28344;BME280;15597;50.914;6.638;2023-04-20T00:28:52;101194.41;;;13.70;35.98
28344;BME280;15597;50.914;6.638;2023-04-20T00:31:19;101182.94;;;13.73;36.49
28344;BME280;15597;50.914;6.638;2023-04-20T00:33:46;101186.31;;;13.78;36.62
28344;BME280;15597;50.914;6.638;2023-04-20T00:36:12;101185.34;;;13.82;36.45
28344;BME280;15597;50.914;6.638;2023-04-20T00:38:37;101180.84;;;13.87;36.79
28344;BME280;15597;50.914;6.638;2023-04-20T00:41:03;101178.94;;;13.93;36.91
28344;BME280;15597;50.914;6.638;2023-04-20T00:43:29;101177.06;;;13.98;36.35
28344;BME280;15597;50.914;6.638;2023-04-20T00:45:55;101173.53;;;13.99;36.87
28344;BME280;15597;50.914;6.638;2023-04-20T00:48:21;101164.72;;;14.00;36.85
28344;BME280;15597;50.914;6.638;2023-04-20T00:50:48;101169.91;;;14.03;36.95
28344;BME280;15597;50.914;6.638;2023-04-20T00:53:15;101168.94;;;14.06;37.40
28344;BME280;15597;50.914;6.638;2023-04-20T00:55:42;101168.88;;;14.09;37.23
28344;BME280;15597;50.914;6.638;2023-04-20T00:58:11;101164.41;;;14.12;37.17
28344;BME280;15597;50.914;6.638;2023-04-20T01:00:38;101153.72;;;14.17;37.37
28344;BME280;15597;50.914;6.638;2023-04-20T01:03:06;101150.06;;;14.23;36.84
28344;BME280;15597;50.914;6.638;2023-04-20T01:05:31;101150.00;;;14.26;37.08
28344;BME280;15597;50.914;6.638;2023-04-20T01:07:57;101155.16;;;14.29;37.21
28344;BME280;15597;50.914;6.638;2023-04-20T01:10:22;101151.59;;;14.31;36.99
28344;BME280;15597;50.914;6.638;2023-04-20T01:12:48;101148.00;;;14.34;36.65
28344;BME280;15597;50.914;6.638;2023-04-20T01:15:14;101142.75;;;14.34;36.42
28344;BME280;15597;50.914;6.638;2023-04-20T01:17:40;101141.88;;;14.34;36.66
28344;BME280;15597;50.914;6.638;2023-04-20T01:20:07;101140.06;;;14.36;36.87
28344;BME280;15597;50.914;6.638;2023-04-20T01:22:41;101132.13;;;14.37;36.54
28344;BME280;15597;50.914;6.638;2023-04-20T01:25:07;101130.41;;;14.36;36.59
28344;BME280;15597;50.914;6.638;2023-04-20T01:27:33;101133.94;;;14.35;36.83
28344;BME280;15597;50.914;6.638;2023-04-20T01:30:00;101126.94;;;14.34;36.94
28344;BME280;15597;50.914;6.638;2023-04-20T01:32:25;101125.22;;;14.33;36.82
28344;BME280;15597;50.914;6.638;2023-04-20T01:34:51;101121.78;;;14.29;36.40
28344;BME280;15597;50.914;6.638;2023-04-20T01:37:16;101114.88;;;14.27;36.88
28344;BME280;15597;50.914;6.638;2023-04-20T01:39:42;101115.78;;;14.26;36.83
28344;BME280;15597;50.914;6.638;2023-04-20T01:42:08;101115.72;;;14.27;37.03
28344;BME280;15597;50.914;6.638;2023-04-20T01:44:34;101100.81;;;14.26;36.51
28344;BME280;15597;50.914;6.638;2023-04-20T01:46:59;101108.78;;;14.25;37.32
28344;BME280;15597;50.914;6.638;2023-04-20T01:49:25;101108.88;;;14.22;36.63
28344;BME280;15597;50.914;6.638;2023-04-20T01:51:51;101107.22;;;14.17;36.55
28344;BME280;15597;50.914;6.638;2023-04-20T01:54:17;101096.72;;;14.16;37.08
28344;BME280;15597;50.914;6.638;2023-04-20T01:56:43;101089.75;;;14.15;37.01
28344;BME280;15597;50.914;6.638;2023-04-20T01:59:08;101087.16;;;14.13;37.09
28344;BME280;15597;50.914;6.638;2023-04-20T02:01:34;101095.06;;;14.13;37.31
28344;BME280;15597;50.914;6.638;2023-04-20T02:03:59;101092.38;;;14.15;37.28
28344;BME280;15597;50.914;6.638;2023-04-20T02:06:25;101092.38;;;14.15;36.91
28344;BME280;15597;50.914;6.638;2023-04-20T02:08:50;101090.63;;;14.15;37.57
28344;BME280;15597;50.914;6.638;2023-04-20T02:11:16;101093.09;;;14.20;37.38
28344;BME280;15597;50.914;6.638;2023-04-20T02:13:41;101097.44;;;14.23;37.35
28344;BME280;15597;50.914;6.638;2023-04-20T02:16:07;101092.16;;;14.23;37.06
28344;BME280;15597;50.914;6.638;2023-04-20T02:18:34;101088.63;;;14.24;37.15
28344;BME280;15597;50.914;6.638;2023-04-20T02:21:00;101078.19;;;14.21;37.38
28344;BME280;15597;50.914;6.638;2023-04-20T02:23:25;101070.25;;;14.22;37.47
28344;BME280;15597;50.914;6.638;2023-04-20T02:25:54;101064.03;;;14.25;37.23
28344;BME280;15597;50.914;6.638;2023-04-20T02:28:19;101058.69;;;14.28;37.27
28344;BME280;15597;50.914;6.638;2023-04-20T02:30:45;101057.72;;;14.30;37.29
28344;BME280;15597;50.914;6.638;2023-04-20T02:33:10;101049.78;;;14.32;37.72
28344;BME280;15597;50.914;6.638;2023-04-20T02:35:36;101045.41;;;14.32;37.16
28344;BME280;15597;50.914;6.638;2023-04-20T02:38:02;101035.00;;;14.28;37.91
28344;BME280;15597;50.914;6.638;2023-04-20T02:40:27;101041.16;;;14.27;37.14
28344;BME280;15597;50.914;6.638;2023-04-20T02:42:53;101028.81;;;14.29;37.89
28344;BME280;15597;50.914;6.638;2023-04-20T02:45:19;101030.53;;;14.30;37.25
28344;BME280;15597;50.914;6.638;2023-04-20T02:47:45;101032.28;;;14.31;37.70
28344;BME280;15597;50.914;6.638;2023-04-20T02:50:13;101030.44;;;14.33;36.89
28344;BME280;15597;50.914;6.638;2023-04-20T02:52:57;101028.72;;;14.32;36.72
28344;BME280;15597;50.914;6.638;2023-04-20T02:55:22;101019.13;;;14.29;36.75
28344;BME280;15597;50.914;6.638;2023-04-20T02:57:52;101026.09;;;14.32;36.85
28344;BME280;15597;50.914;6.638;2023-04-20T03:00:19;101020.81;;;14.34;36.91
28344;BME280;15597;50.914;6.638;2023-04-20T03:03:02;101015.53;;;14.34;37.56
28344;BME280;15597;50.914;6.638;2023-04-20T03:05:28;101011.94;;;14.36;38.01
28344;BME280;15597;50.914;6.638;2023-04-20T03:07:55;101015.28;;;14.41;38.39
28344;BME280;15597;50.914;6.638;2023-04-20T03:10:22;101009.09;;;14.42;37.53
28344;BME280;15597;50.914;6.638;2023-04-20T03:12:54;101003.94;;;14.39;38.10
28344;BME280;15597;50.914;6.638;2023-04-20T03:15:33;101003.00;;;14.42;37.86
28344;BME280;15597;50.914;6.638;2023-04-20T03:18:14;101003.84;;;14.42;38.06
28344;BME280;15597;50.914;6.638;2023-04-20T03:20:40;101000.28;;;14.45;37.82
28344;BME280;15597;50.914;6.638;2023-04-20T03:23:05;101000.09;;;14.50;38.21
28344;BME280;15597;50.914;6.638;2023-04-20T03:25:31;100999.16;;;14.52;38.26
28344;BME280;15597;50.914;6.638;2023-04-20T03:27:58;100997.28;;;14.56;37.59
28344;BME280;15597;50.914;6.638;2023-04-20T03:30:24;101002.44;;;14.59;37.80
28344;BME280;15597;50.914;6.638;2023-04-20T03:32:59;100999.72;;;14.62;38.19
28344;BME280;15597;50.914;6.638;2023-04-20T03:35:25;101008.44;;;14.64;37.43
28344;BME280;15597;50.914;6.638;2023-04-20T03:37:51;101007.59;;;14.64;36.95
28344;BME280;15597;50.914;6.638;2023-04-20T03:40:17;101006.72;;;14.63;36.66
28344;BME280;15597;50.914;6.638;2023-04-20T03:42:42;101004.97;;;14.62;37.31
28344;BME280;15597;50.914;6.638;2023-04-20T03:45:08;101002.44;;;14.59;37.70
28344;BME280;15597;50.914;6.638;2023-04-20T03:47:34;100998.28;;;14.52;36.96
28344;BME280;15597;50.914;6.638;2023-04-20T03:49:59;100996.84;;;14.41;37.11
28344;BME280;15597;50.914;6.638;2023-04-20T03:52:25;101002.22;;;14.38;37.57
28344;BME280;15597;50.914;6.638;2023-04-20T03:54:51;100993.50;;;14.36;37.46
28344;BME280;15597;50.914;6.638;2023-04-20T03:57:17;100992.78;;;14.31;38.12
28344;BME280;15597;50.914;6.638;2023-04-20T03:59:43;100990.25;;;14.28;37.56
28344;BME280;15597;50.914;6.638;2023-04-20T04:02:13;100986.91;;;14.23;38.04
28344;BME280;15597;50.914;6.638;2023-04-20T04:04:40;100993.97;;;14.21;38.07
28344;BME280;15597;50.914;6.638;2023-04-20T04:07:06;100995.78;;;14.19;38.18
28344;BME280;15597;50.914;6.638;2023-04-20T04:09:32;100988.91;;;14.14;38.49
28344;BME280;15597;50.914;6.638;2023-04-20T04:11:57;100987.09;;;14.16;38.05
28344;BME280;15597;50.914;6.638;2023-04-20T04:14:23;100990.53;;;14.19;38.28
28344;BME280;15597;50.914;6.638;2023-04-20T04:16:48;100994.91;;;14.18;37.98
28344;BME280;15597;50.914;6.638;2023-04-20T04:19:14;100989.72;;;14.16;38.47
28344;BME280;15597;50.914;6.638;2023-04-20T04:21:40;100985.44;;;14.12;38.38
28344;BME280;15597;50.914;6.638;2023-04-20T04:24:06;100989.94;;;14.09;38.07
28344;BME280;15597;50.914;6.638;2023-04-20T04:26:41;100977.88;;;14.01;37.93
28344;BME280;15597;50.914;6.638;2023-04-20T04:29:07;100978.84;;;13.97;38.23
28344;BME280;15597;50.914;6.638;2023-04-20T04:31:35;100973.75;;;13.93;37.83
28344;BME280;15597;50.914;6.638;2023-04-20T04:34:06;100970.50;;;13.84;37.51
28344;BME280;15597;50.914;6.638;2023-04-20T04:36:38;100972.44;;;13.76;37.62
28344;BME280;15597;50.914;6.638;2023-04-20T04:39:06;100962.97;;;13.70;37.89
28344;BME280;15597;50.914;6.638;2023-04-20T04:41:31;100976.16;;;13.69;37.92
28344;BME280;15597;50.914;6.638;2023-04-20T04:44:08;100964.78;;;13.68;38.54
28344;BME280;15597;50.914;6.638;2023-04-20T04:46:35;100964.66;;;13.73;38.21
28344;BME280;15597;50.914;6.638;2023-04-20T04:49:00;100951.41;;;13.76;38.15
28344;BME280;15597;50.914;6.638;2023-04-20T04:51:27;100959.19;;;13.81;38.78
28344;BME280;15597;50.914;6.638;2023-04-20T04:53:52;100963.41;;;13.86;38.92
28344;BME280;15597;50.914;6.638;2023-04-20T04:56:20;100968.50;;;13.93;38.86
28344;BME280;15597;50.914;6.638;2023-04-20T04:58:46;100963.97;;;13.96;38.70
28344;BME280;15597;50.914;6.638;2023-04-20T05:01:12;100966.53;;;13.99;38.88
28344;BME280;15597;50.914;6.638;2023-04-20T05:03:38;100964.97;;;13.94;38.54
28344;BME280;15597;50.914;6.638;2023-04-20T05:06:04;100972.03;;;13.92;38.71
28344;BME280;15597;50.914;6.638;2023-04-20T05:08:29;100967.72;;;13.89;38.46
28344;BME280;15597;50.914;6.638;2023-04-20T05:10:56;100966.03;;;13.86;38.40
28344;BME280;15597;50.914;6.638;2023-04-20T05:13:22;100960.13;;;13.78;38.43
28344;BME280;15597;50.914;6.638;2023-04-20T05:15:48;100965.63;;;13.69;38.78
28344;BME280;15597;50.914;6.638;2023-04-20T05:18:13;100962.28;;;13.64;38.85
28344;BME280;15597;50.914;6.638;2023-04-20T05:20:39;100966.94;;;13.54;38.75
28344;BME280;15597;50.914;6.638;2023-04-20T05:23:05;100978.56;;;13.45;38.94
28344;BME280;15597;50.914;6.638;2023-04-20T05:25:30;100970.81;;;13.39;39.84
28344;BME280;15597;50.914;6.638;2023-04-20T05:27:57;100961.38;;;13.32;39.99
28344;BME280;15597;50.914;6.638;2023-04-20T05:30:22;100970.13;;;13.32;40.00
28344;BME280;15597;50.914;6.638;2023-04-20T05:32:49;100962.25;;;13.32;39.95
28344;BME280;15597;50.914;6.638;2023-04-20T05:35:14;100968.44;;;13.29;40.09
28344;BME280;15597;50.914;6.638;2023-04-20T05:37:40;100975.41;;;13.30;40.37
28344;BME280;15597;50.914;6.638;2023-04-20T05:40:06;100964.91;;;13.30;40.47
28344;BME280;15597;50.914;6.638;2023-04-20T05:42:32;100978.94;;;13.29;40.40
28344;BME280;15597;50.914;6.638;2023-04-20T05:44:57;100981.50;;;13.33;40.51
28344;BME280;15597;50.914;6.638;2023-04-20T05:47:23;100975.34;;;13.34;40.68
28344;BME280;15597;50.914;6.638;2023-04-20T05:49:48;100974.44;;;13.35;40.58
28344;BME280;15597;50.914;6.638;2023-04-20T05:52:14;100977.88;;;13.37;40.77
28344;BME280;15597;50.914;6.638;2023-04-20T05:54:40;100977.88;;;13.37;40.74
28344;BME280;15597;50.914;6.638;2023-04-20T05:57:05;100982.22;;;13.39;40.94
28344;BME280;15597;50.914;6.638;2023-04-20T05:59:31;100974.41;;;13.36;40.72
28344;BME280;15597;50.914;6.638;2023-04-20T06:01:57;100977.16;;;13.32;41.13
28344;BME280;15597;50.914;6.638;2023-04-20T06:04:22;100979.97;;;13.24;41.16
28344;BME280;15597;50.914;6.638;2023-04-20T06:06:47;100976.50;;;13.22;41.54
28344;BME280;15597;50.914;6.638;2023-04-20T06:09:13;100980.94;;;13.21;41.05
28344;BME280;15597;50.914;6.638;2023-04-20T06:11:39;100970.44;;;13.20;41.08
28344;BME280;15597;50.914;6.638;2023-04-20T06:14:05;100968.78;;;13.17;41.50
28344;BME280;15597;50.914;6.638;2023-04-20T06:16:31;100960.97;;;13.14;41.23
28344;BME280;15597;50.914;6.638;2023-04-20T06:18:56;100960.22;;;13.09;41.40
28344;BME280;15597;50.914;6.638;2023-04-20T06:21:22;100958.59;;;13.05;41.26
28344;BME280;15597;50.914;6.638;2023-04-20T06:23:49;100950.78;;;13.02;41.53
28344;BME280;15597;50.914;6.638;2023-04-20T06:26:14;100949.09;;;12.99;41.57
28344;BME280;15597;50.914;6.638;2023-04-20T06:28:40;100950.03;;;12.96;41.60
28344;BME280;15597;50.914;6.638;2023-04-20T06:31:06;100950.97;;;12.94;41.43
28344;BME280;15597;50.914;6.638;2023-04-20T06:33:31;100939.78;;;12.87;41.55
28344;BME280;15597;50.914;6.638;2023-04-20T06:35:57;100947.81;;;12.81;41.94
28344;BME280;15597;50.914;6.638;2023-04-20T06:38:23;100939.13;;;12.77;41.83
28344;BME280;15597;50.914;6.638;2023-04-20T06:40:52;100945.19;;;12.81;41.95
28344;BME280;15597;50.914;6.638;2023-04-20T06:43:18;100940.78;;;12.81;41.94
28344;BME280;15597;50.914;6.638;2023-04-20T06:45:43;100939.78;;;12.87;42.00
28344;BME280;15597;50.914;6.638;2023-04-20T06:48:09;100939.69;;;12.90;41.97
28344;BME280;15597;50.914;6.638;2023-04-20T06:50:35;100936.97;;;12.93;41.86
28344;BME280;15597;50.914;6.638;2023-04-20T06:53:03;100936.09;;;12.94;42.07
28344;BME280;15597;50.914;6.638;2023-04-20T06:55:30;100932.41;;;13.02;42.18
28344;BME280;15597;50.914;6.638;2023-04-20T06:57:55;100930.53;;;13.05;42.36
28344;BME280;15597;50.914;6.638;2023-04-20T07:00:21;100928.69;;;13.09;42.25
28344;BME280;15597;50.914;6.638;2023-04-20T07:02:50;100935.59;;;13.13;42.44
28344;BME280;15597;50.914;6.638;2023-04-20T07:05:16;100940.59;;;13.22;42.63
28344;BME280;15597;50.914;6.638;2023-04-20T07:07:42;100934.28;;;13.29;42.41
28344;BME280;15597;50.914;6.638;2023-04-20T07:10:10;100931.56;;;13.33;42.55
28344;BME280;15597;50.914;6.638;2023-04-20T07:12:37;100920.88;;;13.39;42.34
28344;BME280;15597;50.914;6.638;2023-04-20T07:15:04;100929.53;;;13.44;42.44
28344;BME280;15597;50.914;6.638;2023-04-20T07:17:31;100929.44;;;13.47;42.24
28344;BME280;15597;50.914;6.638;2023-04-20T07:19:57;100929.34;;;13.50;42.48
28344;BME280;15597;50.914;6.638;2023-04-20T07:22:30;100926.69;;;13.52;42.58
28344;BME280;15597;50.914;6.638;2023-04-20T07:24:56;100926.72;;;13.50;42.23
28344;BME280;15597;50.914;6.638;2023-04-20T07:27:21;100929.34;;;13.50;42.47
28344;BME280;15597;50.914;6.638;2023-04-20T07:29:47;100924.09;;;13.50;42.44
28344;BME280;15597;50.914;6.638;2023-04-20T07:32:13;100929.34;;;13.50;42.56
28344;BME280;15597;50.914;6.638;2023-04-20T07:34:39;100923.19;;;13.51;42.74
28344;BME280;15597;50.914;6.638;2023-04-20T07:37:04;100926.63;;;13.55;42.64
28344;BME280;15597;50.914;6.638;2023-04-20T07:39:30;100921.28;;;13.56;42.76
28344;BME280;15597;50.914;6.638;2023-04-20T07:41:55;100925.56;;;13.61;42.81
28344;BME280;15597;50.914;6.638;2023-04-20T07:44:21;100932.44;;;13.65;43.04
28344;BME280;15597;50.914;6.638;2023-04-20T07:46:47;100923.75;;;13.63;42.68
28344;BME280;15597;50.914;6.638;2023-04-20T07:49:14;100928.09;;;13.64;43.00
28344;BME280;15597;50.914;6.638;2023-04-20T07:51:40;100929.81;;;13.65;43.03
28344;BME280;15597;50.914;6.638;2023-04-20T07:54:06;100925.38;;;13.67;42.91
28344;BME280;15597;50.914;6.638;2023-04-20T07:56:32;100928.91;;;13.66;43.08
28344;BME280;15597;50.914;6.638;2023-04-20T07:58:58;100921.94;;;13.65;43.20
28344;BME280;15597;50.914;6.638;2023-04-20T08:01:24;100923.75;;;13.63;43.11
28344;BME280;15597;50.914;6.638;2023-04-20T08:03:50;100920.22;;;13.64;43.11
28344;BME280;15597;50.914;6.638;2023-04-20T08:06:16;100923.72;;;13.64;43.46
28344;BME280;15597;50.914;6.638;2023-04-20T08:08:41;100923.66;;;13.66;43.67
28344;BME280;15597;50.914;6.638;2023-04-20T08:11:07;100924.53;;;13.66;43.56
28344;BME280;15597;50.914;6.638;2023-04-20T08:13:34;100924.47;;;13.68;43.76
28344;BME280;15597;50.914;6.638;2023-04-20T08:15:59;100921.75;;;13.71;43.40
28344;BME280;15597;50.914;6.638;2023-04-20T08:18:25;100918.22;;;13.72;43.70
28344;BME280;15597;50.914;6.638;2023-04-20T08:20:51;100919.94;;;13.73;44.06
28344;BME280;15597;50.914;6.638;2023-04-20T08:23:16;100921.66;;;13.74;44.02
28344;BME280;15597;50.914;6.638;2023-04-20T08:25:42;100914.69;;;13.73;43.76
28344;BME280;15597;50.914;6.638;2023-04-20T08:28:07;100914.69;;;13.73;44.30
28344;BME280;15597;50.914;6.638;2023-04-20T08:30:33;100917.28;;;13.75;44.33
28344;BME280;15597;50.914;6.638;2023-04-20T08:32:58;100907.66;;;13.73;44.54
28344;BME280;15597;50.914;6.638;2023-04-20T08:35:24;100909.41;;;13.73;44.59
28344;BME280;15597;50.914;6.638;2023-04-20T08:37:50;100908.56;;;13.72;44.62
28344;BME280;15597;50.914;6.638;2023-04-20T08:40:16;100902.41;;;13.73;44.17
28344;BME280;15597;50.914;6.638;2023-04-20T08:42:44;100904.13;;;13.75;44.56
28344;BME280;15597;50.914;6.638;2023-04-20T08:45:11;100900.63;;;13.74;44.79
28344;BME280;15597;50.914;6.638;2023-04-20T08:47:37;100897.19;;;13.72;44.80
28344;BME280;15597;50.914;6.638;2023-04-20T08:50:04;100893.69;;;13.71;44.61
28344;BME280;15597;50.914;6.638;2023-04-20T08:52:30;100893.63;;;13.73;45.00
28344;BME280;15597;50.914;6.638;2023-04-20T08:54:56;100887.53;;;13.72;45.13
28344;BME280;15597;50.914;6.638;2023-04-20T08:57:22;100894.44;;;13.77;44.73
28344;BME280;15597;50.914;6.638;2023-04-20T08:59:48;100886.47;;;13.78;44.57
28344;BME280;15597;50.914;6.638;2023-04-20T09:02:14;100890.75;;;13.82;44.60
28344;BME280;15597;50.914;6.638;2023-04-20T09:04:40;100891.50;;;13.86;44.93
28344;BME280;15597;50.914;6.638;2023-04-20T09:07:06;100891.47;;;13.87;44.59
28344;BME280;15597;50.914;6.638;2023-04-20T09:09:40;100884.41;;;13.90;44.49
28344;BME280;15597;50.914;6.638;2023-04-20T09:12:06;100876.50;;;13.90;44.95
28344;BME280;15597;50.914;6.638;2023-04-20T09:14:44;100881.81;;;13.88;44.82
28344;BME280;15597;50.914;6.638;2023-04-20T09:17:10;100887.75;;;13.95;44.62
28344;BME280;15597;50.914;6.638;2023-04-20T09:19:39;100878.84;;;13.99;44.74
28344;BME280;15597;50.914;6.638;2023-04-20T09:22:05;100883.16;;;14.01;44.91
28344;BME280;15597;50.914;6.638;2023-04-20T09:24:36;100883.97;;;14.03;44.79
28344;BME280;15597;50.914;6.638;2023-04-20T09:27:14;100888.38;;;14.03;45.24
28344;BME280;15597;50.914;6.638;2023-04-20T09:29:40;100879.56;;;14.04;45.15
28344;BME280;15597;50.914;6.638;2023-04-20T09:32:06;100884.84;;;14.04;45.06
28344;BME280;15597;50.914;6.638;2023-04-20T09:34:41;100876.16;;;14.00;44.81
28344;BME280;15597;50.914;6.638;2023-04-20T09:37:08;100878.66;;;14.05;44.85
28344;BME280;15597;50.914;6.638;2023-04-20T09:39:36;100875.22;;;14.03;45.43
28344;BME280;15597;50.914;6.638;2023-04-20T09:42:05;100873.50;;;14.02;44.92
28344;BME280;15597;50.914;6.638;2023-04-20T09:44:37;100879.72;;;13.99;44.93
28344;BME280;15597;50.914;6.638;2023-04-20T09:47:02;100870.88;;;14.02;45.32
28344;BME280;15597;50.914;6.638;2023-04-20T09:49:29;100868.25;;;14.02;45.14
28344;BME280;15597;50.914;6.638;2023-04-20T09:51:55;100866.53;;;14.01;45.08
28344;BME280;15597;50.914;6.638;2023-04-20T09:54:22;100868.25;;;14.02;45.54
28344;BME280;15597;50.914;6.638;2023-04-20T09:56:48;100869.06;;;14.04;45.45
28344;BME280;15597;50.914;6.638;2023-04-20T09:59:16;100861.16;;;14.04;45.28
28344;BME280;15597;50.914;6.638;2023-04-20T10:01:43;100869.78;;;14.09;45.45
28344;BME280;15597;50.914;6.638;2023-04-20T10:04:09;100870.56;;;14.11;45.62
28344;BME280;15597;50.914;6.638;2023-04-20T10:06:36;100868.66;;;14.16;45.35
28344;BME280;15597;50.914;6.638;2023-04-20T10:09:04;100872.91;;;14.21;45.55
28344;BME280;15597;50.914;6.638;2023-04-20T10:11:31;100877.59;;;14.11;45.75
28344;BME280;15597;50.914;6.638;2023-04-20T10:14:00;100881.91;;;14.13;45.33
28344;BME280;15597;50.914;6.638;2023-04-20T10:16:26;100874.88;;;14.14;45.08
28344;BME280;15597;50.914;6.638;2023-04-20T10:18:57;100869.56;;;14.15;44.91
28344;BME280;15597;50.914;6.638;2023-04-20T10:21:22;100870.22;;;14.22;45.07
28344;BME280;15597;50.914;6.638;2023-04-20T10:23:49;100873.63;;;14.26;45.51
28344;BME280;15597;50.914;6.638;2023-04-20T10:26:15;100871.00;;;14.26;45.25
28344;BME280;15597;50.914;6.638;2023-04-20T10:28:41;100862.19;;;14.27;45.22
28344;BME280;15597;50.914;6.638;2023-04-20T10:31:10;100873.47;;;14.30;45.05
28344;BME280;15597;50.914;6.638;2023-04-20T10:33:53;100869.09;;;14.29;45.18
28344;BME280;15597;50.914;6.638;2023-04-20T10:36:27;100861.88;;;14.36;45.55
28344;BME280;15597;50.914;6.638;2023-04-20T10:38:54;100859.84;;;14.44;45.76
28344;BME280;15597;50.914;6.638;2023-04-20T10:41:20;100853.53;;;14.50;45.59
28344;BME280;15597;50.914;6.638;2023-04-20T10:43:45;100856.78;;;14.58;45.60
28344;BME280;15597;50.914;6.638;2023-04-20T10:48:57;100850.41;;;14.64;46.04
28344;BME280;15597;50.914;6.638;2023-04-20T10:51:23;100848.41;;;14.72;45.52
28344;BME280;15597;50.914;6.638;2023-04-20T10:56:24;100855.25;;;14.78;45.90
28344;BME280;15597;50.914;6.638;2023-04-20T10:58:50;100849.00;;;14.81;45.49
28344;BME280;15597;50.914;6.638;2023-04-20T11:01:16;100851.63;;;14.81;45.69
28344;BME280;15597;50.914;6.638;2023-04-20T11:03:48;100858.72;;;14.79;45.36
28344;BME280;15597;50.914;6.638;2023-04-20T11:06:16;100851.53;;;14.84;45.28
28344;BME280;15597;50.914;6.638;2023-04-20T11:08:42;100848.00;;;14.85;45.63
28344;BME280;15597;50.914;6.638;2023-04-20T11:11:21;100841.00;;;14.84;45.28
28344;BME280;15597;50.914;6.638;2023-04-20T11:13:49;100839.00;;;14.90;45.47
28344;BME280;15597;50.914;6.638;2023-04-20T11:16:17;100830.03;;;14.96;45.64
28344;BME280;15597;50.914;6.638;2023-04-20T11:18:53;100833.47;;;14.98;45.72
28344;BME280;15597;50.914;6.638;2023-04-20T11:21:21;100829.69;;;15.06;45.58
28344;BME280;15597;50.914;6.638;2023-04-20T11:23:48;100823.44;;;15.08;45.77
28344;BME280;15597;50.914;6.638;2023-04-20T11:26:14;100828.56;;;15.13;45.89
28344;BME280;15597;50.914;6.638;2023-04-20T11:28:52;100817.09;;;15.14;45.58
28344;BME280;15597;50.914;6.638;2023-04-20T11:31:18;100810.63;;;15.23;45.65
28344;BME280;15597;50.914;6.638;2023-04-20T11:33:45;100813.81;;;15.31;45.68
28344;BME280;15597;50.914;6.638;2023-04-20T11:36:22;100814.56;;;15.34;45.72
28344;BME280;15597;50.914;6.638;2023-04-20T11:38:48;100811.66;;;15.42;45.53
28344;BME280;15597;50.914;6.638;2023-04-20T11:41:15;100810.53;;;15.48;45.34
28344;BME280;15597;50.914;6.638;2023-04-20T11:43:41;100809.50;;;15.52;45.46
28344;BME280;15597;50.914;6.638;2023-04-20T11:46:15;100819.03;;;15.56;45.47
28344;BME280;15597;50.914;6.638;2023-04-20T11:48:41;100814.38;;;15.63;44.92
28344;BME280;15597;50.914;6.638;2023-04-20T11:51:07;100811.66;;;15.65;44.86
28344;BME280;15597;50.914;6.638;2023-04-20T11:53:33;100816.81;;;15.68;44.75
28344;BME280;15597;50.914;6.638;2023-04-20T11:55:59;100810.63;;;15.69;44.51
28344;BME280;15597;50.914;6.638;2023-04-20T11:58:24;100813.16;;;15.72;44.45
28344;BME280;15597;50.914;6.638;2023-04-20T12:00:50;100809.59;;;15.73;44.35
28344;BME280;15597;50.914;6.638;2023-04-20T12:03:16;100812.22;;;15.73;44.57
28344;BME280;15597;50.914;6.638;2023-04-20T12:05:41;100808.78;;;15.71;44.63
28344;BME280;15597;50.914;6.638;2023-04-20T12:08:08;100808.78;;;15.71;44.59
28344;BME280;15597;50.914;6.638;2023-04-20T12:10:33;100810.63;;;15.69;44.24
28344;BME280;15597;50.914;6.638;2023-04-20T12:12:59;100820.25;;;15.70;44.39
28344;BME280;15597;50.914;6.638;2023-04-20T12:15:26;100808.00;;;15.69;44.16
28344;BME280;15597;50.914;6.638;2023-04-20T12:17:52;100810.63;;;15.69;44.13
28344;BME280;15597;50.914;6.638;2023-04-20T12:20:18;100804.56;;;15.67;44.33
28344;BME280;15597;50.914;6.638;2023-04-20T12:22:43;100813.25;;;15.69;44.48
28344;BME280;15597;50.914;6.638;2023-04-20T12:25:09;100806.03;;;15.74;44.52
28344;BME280;15597;50.914;6.638;2023-04-20T12:27:35;100810.22;;;15.80;44.57
28344;BME280;15597;50.914;6.638;2023-04-20T12:30:01;100803.81;;;15.85;44.48
28344;BME280;15597;50.914;6.638;2023-04-20T12:32:26;100804.59;;;15.89;44.47
28344;BME280;15597;50.914;6.638;2023-04-20T12:34:52;100808.78;;;15.95;44.38
28344;BME280;15597;50.914;6.638;2023-04-20T12:37:17;100798.09;;;15.98;44.27
28344;BME280;15597;50.914;6.638;2023-04-20T12:39:44;100804.06;;;16.03;44.25
28344;BME280;15597;50.914;6.638;2023-04-20T12:42:10;100795.88;;;16.09;44.15
28344;BME280;15597;50.914;6.638;2023-04-20T12:44:35;100788.63;;;16.14;44.15
28344;BME280;15597;50.914;6.638;2023-04-20T12:47:01;100797.09;;;16.23;44.05
28344;BME280;15597;50.914;6.638;2023-04-20T12:49:27;100792.50;;;16.26;44.04
28344;BME280;15597;50.914;6.638;2023-04-20T12:51:52;100795.25;;;16.25;43.68
28344;BME280;15597;50.914;6.638;2023-04-20T12:54:18;100789.97;;;16.25;43.65